createdAt,value
2023-05-19T00:00:16.493Z,25.88
2023-05-19T00:03:00.419Z,24.77
2023-05-19T00:05:56.256Z,26.17
2023-05-19T00:08:38.285Z,26.15
2023-05-19T00:11:15.487Z,29.38
2023-05-19T00:14:00.490Z,25.08
2023-05-19T00:16:39.562Z,26.48
2023-05-19T00:19:25.461Z,24.63
2023-05-19T00:22:07.720Z,25.55
2023-05-19T00:24:49.660Z,27.45
2023-05-19T00:27:34.771Z,25.75
2023-05-19T00:30:23.485Z,25.27
2023-05-19T00:33:02.152Z,27.17
2023-05-19T00:35:50.741Z,25.50
2023-05-19T00:38:28.794Z,23.90
2023-05-19T00:41:05.683Z,27.00
2023-05-19T00:43:42.355Z,27.67
2023-05-19T00:46:24.152Z,29.63
2023-05-19T00:49:00.854Z,25.42
2023-05-19T00:51:44.553Z,33.85
2023-05-19T00:54:29.529Z,30.02
2023-05-19T00:57:06.984Z,33.72
2023-05-19T00:59:47.097Z,29.50
2023-05-19T01:02:31.834Z,36.40
2023-05-19T01:05:13.116Z,36.17
2023-05-19T01:07:54.228Z,32.35
2023-05-19T01:10:46.968Z,33.13
2023-05-19T01:13:31.155Z,28.67
2023-05-19T01:16:18.377Z,35.58
2023-05-19T01:19:08.833Z,34.85
2023-05-19T01:22:29.309Z,34.65
2023-05-19T01:25:46.318Z,34.80
2023-05-19T01:28:45.603Z,36.90
2023-05-19T01:31:32.414Z,34.78
2023-05-19T01:34:12.681Z,37.65
2023-05-19T01:36:56.355Z,35.92
2023-05-19T01:39:33.102Z,32.70
2023-05-19T01:42:10.902Z,39.03
2023-05-19T01:44:48.575Z,36.60
2023-05-19T01:47:35.839Z,38.58
2023-05-19T01:50:16.795Z,36.40
2023-05-19T01:52:52.595Z,34.63
2023-05-19T01:55:33.764Z,33.38
2023-05-19T01:58:21.038Z,38.70
2023-05-19T02:01:19.776Z,37.65
2023-05-19T02:04:28.419Z,32.25
2023-05-19T02:07:09.824Z,33.92
2023-05-19T02:09:59.538Z,35.35
2023-05-19T02:12:47.717Z,33.80
2023-05-19T02:15:32.891Z,36.47
2023-05-19T02:18:15.994Z,30.90
2023-05-19T02:21:10.323Z,35.05
2023-05-19T02:23:54.426Z,36.83
2023-05-19T02:26:37.339Z,35.10
2023-05-19T02:29:21.785Z,35.55
2023-05-19T02:32:03.773Z,35.15
2023-05-19T02:34:44.034Z,35.85
2023-05-19T02:37:29.242Z,38.17
2023-05-19T02:40:02.241Z,40.05
2023-05-19T02:42:47.710Z,32.05
2023-05-19T02:45:24.072Z,31.13
2023-05-19T02:48:02.878Z,37.28
2023-05-19T02:50:36.650Z,35.30
2023-05-19T02:53:26.278Z,35.40
2023-05-19T02:56:03.206Z,54.20
2023-05-19T02:58:42.832Z,34.83
2023-05-19T03:01:15.519Z,49.33
2023-05-19T03:03:54.650Z,34.20
2023-05-19T03:06:30.421Z,34.22
2023-05-19T03:09:14.930Z,71.50
2023-05-19T03:11:53.921Z,41.67
2023-05-19T03:14:31.571Z,40.00
2023-05-19T03:17:14.529Z,66.15
2023-05-19T03:20:05.066Z,50.05
2023-05-19T03:22:43.375Z,41.92
2023-05-19T03:25:20.714Z,52.70
2023-05-19T03:27:53.843Z,47.88
2023-05-19T03:30:25.430Z,44.42
2023-05-19T03:33:24.487Z,41.78
2023-05-19T03:36:03.406Z,50.00
2023-05-19T03:38:45.590Z,65.28
2023-05-19T03:41:33.457Z,65.55
2023-05-19T03:44:10.280Z,46.72
2023-05-19T03:46:46.760Z,47.00
2023-05-19T03:49:52.753Z,45.28
2023-05-19T03:53:01.535Z,85.18
2023-05-19T03:55:47.596Z,56.83
2023-05-19T03:58:24.501Z,71.40
2023-05-19T04:01:01.152Z,79.65
2023-05-19T04:03:35.875Z,47.70
2023-05-19T04:06:15.109Z,58.85
2023-05-19T04:09:00.532Z,58.65
2023-05-19T04:11:38.924Z,45.75
2023-05-19T04:14:22.992Z,48.47
2023-05-19T04:16:58.504Z,93.10
2023-05-19T04:19:44.636Z,73.20
2023-05-19T04:22:24.283Z,47.03
2023-05-19T04:25:09.036Z,43.27
2023-05-19T04:27:48.971Z,52.58
2023-05-19T04:30:31.900Z,52.65
2023-05-19T04:33:06.307Z,49.45
2023-05-19T04:35:48.837Z,53.30
2023-05-19T04:38:33.943Z,41.53
2023-05-19T04:41:16.000Z,75.13
2023-05-19T04:43:53.003Z,50.75
2023-05-19T04:46:42.770Z,36.90
2023-05-19T04:49:23.036Z,39.72
2023-05-19T04:51:59.979Z,64.43
2023-05-19T04:54:45.835Z,41.33
2023-05-19T04:57:30.540Z,39.85
2023-05-19T05:00:18.437Z,32.38
2023-05-19T05:03:17.546Z,50.42
2023-05-19T05:05:56.788Z,30.50
2023-05-19T05:08:49.234Z,37.05
2023-05-19T05:11:45.603Z,35.50
2023-05-19T05:14:35.494Z,28.88
2023-05-19T05:17:15.245Z,31.83
2023-05-19T05:20:00.117Z,44.33
2023-05-19T05:22:42.824Z,32.10
2023-05-19T05:25:26.668Z,31.13
2023-05-19T05:28:07.744Z,43.22
2023-05-19T05:30:48.621Z,36.40
2023-05-19T05:33:38.863Z,37.00
2023-05-19T05:36:25.554Z,32.10
2023-05-19T05:39:07.255Z,32.22
2023-05-19T05:41:48.403Z,32.60
2023-05-19T05:44:25.830Z,35.35
2023-05-19T05:47:36.350Z,26.80
2023-05-19T05:50:20.651Z,29.17
2023-05-19T05:53:12.481Z,27.73
2023-05-19T05:55:47.862Z,23.23
2023-05-19T05:58:30.761Z,33.05
2023-05-19T06:01:15.437Z,25.13
2023-05-19T06:03:54.381Z,21.92
2023-05-19T06:06:31.083Z,22.23
2023-05-19T06:09:21.399Z,24.60
2023-05-19T06:11:59.732Z,24.90
2023-05-19T06:14:38.878Z,24.40
2023-05-19T06:17:32.271Z,21.42
2023-05-19T06:20:18.125Z,26.38
2023-05-19T06:22:54.169Z,23.20
2023-05-19T06:25:33.883Z,25.10
2023-05-19T06:28:19.401Z,21.00
2023-05-19T06:30:57.722Z,23.05
2023-05-19T06:33:54.301Z,22.98
2023-05-19T06:36:37.749Z,63.03
2023-05-19T06:39:16.938Z,28.50
2023-05-19T06:41:58.702Z,42.75
2023-05-19T06:45:19.643Z,42.05
2023-05-19T06:48:02.957Z,30.65
2023-05-19T06:50:48.151Z,34.13
2023-05-19T06:53:27.569Z,64.07
2023-05-19T06:56:16.414Z,39.13
2023-05-19T06:58:54.553Z,38.20
2023-05-19T07:01:41.361Z,32.70
2023-05-19T07:04:52.147Z,30.63
2023-05-19T07:07:32.180Z,30.98
2023-05-19T07:10:05.471Z,29.33
2023-05-19T07:12:41.577Z,30.73
2023-05-19T07:15:30.934Z,29.90
2023-05-19T07:18:16.505Z,24.45
2023-05-19T07:20:53.170Z,29.15
2023-05-19T07:23:28.892Z,27.52
2023-05-19T07:26:06.101Z,39.17
2023-05-19T07:28:44.251Z,45.40
2023-05-19T07:31:31.696Z,28.67
2023-05-19T07:34:07.034Z,31.45
2023-05-19T07:36:44.469Z,25.42
2023-05-19T07:39:37.359Z,23.42
2023-05-19T07:42:14.873Z,23.30
2023-05-19T07:44:50.915Z,24.30
2023-05-19T07:47:34.334Z,25.48
2023-05-19T07:50:15.426Z,22.80
2023-05-19T07:52:52.157Z,22.23
2023-05-19T07:55:31.974Z,22.60
2023-05-19T07:58:06.522Z,20.88
2023-05-19T08:00:46.220Z,25.02
2023-05-19T08:03:32.491Z,21.95
2023-05-19T08:06:15.093Z,21.65
2023-05-19T08:08:50.286Z,21.38
2023-05-19T08:11:39.519Z,19.60
2023-05-19T08:14:15.001Z,20.27
2023-05-19T08:16:48.845Z,22.50
2023-05-19T08:19:34.792Z,22.42
2023-05-19T08:22:10.045Z,23.45
2023-05-19T08:24:55.420Z,24.23
2023-05-19T08:27:41.621Z,23.23
2023-05-19T08:30:25.767Z,22.75
2023-05-19T08:33:13.599Z,24.42
2023-05-19T08:35:56.148Z,24.75
2023-05-19T08:38:34.001Z,28.75
2023-05-19T08:41:17.952Z,23.58
2023-05-19T08:43:56.084Z,25.45
2023-05-19T08:46:35.512Z,25.25
2023-05-19T08:49:25.490Z,26.27
2023-05-19T08:52:16.974Z,23.38
2023-05-19T08:55:03.272Z,26.25
2023-05-19T08:57:40.516Z,26.48
2023-05-19T09:00:38.236Z,23.67
2023-05-19T09:03:23.040Z,26.98
2023-05-19T09:06:02.631Z,24.50
2023-05-19T09:08:53.293Z,21.63
2023-05-19T09:11:32.243Z,27.00
2023-05-19T09:14:13.443Z,20.02
2023-05-19T09:16:53.667Z,21.45
2023-05-19T09:19:34.392Z,18.00
2023-05-19T09:22:20.676Z,18.27
2023-05-19T09:25:00.251Z,22.10
2023-05-19T09:27:47.105Z,20.20
2023-05-19T09:30:25.837Z,21.75
2023-05-19T09:33:09.493Z,18.30
2023-05-19T09:35:43.371Z,20.95
2023-05-19T09:38:24.024Z,16.42
2023-05-19T09:41:07.552Z,18.10
2023-05-19T09:43:45.760Z,18.00
2023-05-19T09:46:27.491Z,17.23
2023-05-19T09:49:14.428Z,16.88
2023-05-19T09:51:51.662Z,17.45
2023-05-19T09:54:36.212Z,16.67
2023-05-19T09:57:18.275Z,16.50
2023-05-19T09:59:57.830Z,16.65
2023-05-19T10:02:52.243Z,17.15
2023-05-19T10:05:31.553Z,16.27
2023-05-19T10:08:29.220Z,16.35
2023-05-19T10:11:17.036Z,16.60
2023-05-19T10:14:00.066Z,16.23
2023-05-19T10:16:37.205Z,15.73
2023-05-19T10:19:19.454Z,16.35
2023-05-19T10:21:56.138Z,14.88
2023-05-19T10:24:32.119Z,16.33
2023-05-19T10:27:22.575Z,15.20
2023-05-19T10:30:12.450Z,17.40
2023-05-19T10:32:59.155Z,17.30
2023-05-19T10:36:10.247Z,21.77
2023-05-19T10:38:52.508Z,16.70
2023-05-19T10:41:45.063Z,15.63
2023-05-19T10:44:40.347Z,17.10
2023-05-19T10:47:31.882Z,15.98
2023-05-19T10:50:15.033Z,15.55
2023-05-19T10:53:02.154Z,15.48
2023-05-19T10:55:55.913Z,14.52
2023-05-19T10:58:43.432Z,14.10
2023-05-19T11:01:28.263Z,16.17
2023-05-19T11:04:23.418Z,13.18
2023-05-19T11:06:58.446Z,15.70
2023-05-19T11:09:40.289Z,11.52
2023-05-19T11:12:18.636Z,15.77
2023-05-19T11:14:57.503Z,12.55
2023-05-19T11:17:35.052Z,13.45
2023-05-19T11:20:26.381Z,13.77
2023-05-19T11:23:18.850Z,13.57
2023-05-19T11:26:05.784Z,13.15
2023-05-19T11:28:40.404Z,17.13
2023-05-19T11:31:20.565Z,13.55
2023-05-19T11:33:59.940Z,13.10
2023-05-19T11:36:52.251Z,12.70
2023-05-19T11:42:20.838Z,12.50
2023-05-19T11:45:15.717Z,13.43
2023-05-19T11:48:08.941Z,13.05
2023-05-19T11:50:57.203Z,12.02
2023-05-19T11:53:36.964Z,11.95
2023-05-19T11:56:18.825Z,11.23
2023-05-19T11:58:51.823Z,10.65
2023-05-19T12:01:32.135Z,10.85
2023-05-19T12:04:22.497Z,11.15
2023-05-19T12:07:04.575Z,12.13
2023-05-19T12:09:49.142Z,10.73
2023-05-19T12:12:29.713Z,10.55
2023-05-19T12:15:17.219Z,11.75
2023-05-19T12:17:52.785Z,12.57
2023-05-19T12:20:31.197Z,12.40
2023-05-19T12:23:19.173Z,13.85
2023-05-19T12:26:02.823Z,12.40
2023-05-19T12:28:44.123Z,13.90
2023-05-19T12:31:17.517Z,10.23
2023-05-19T12:33:55.573Z,10.00
2023-05-19T12:36:29.820Z,8.95
2023-05-19T12:39:09.972Z,9.77
2023-05-19T12:41:44.154Z,15.43
2023-05-19T12:44:41.223Z,10.10
2023-05-19T12:47:18.110Z,11.00
2023-05-19T12:50:06.871Z,11.93
2023-05-19T12:52:48.660Z,10.18
2023-05-19T12:55:33.988Z,9.70
2023-05-19T12:58:17.143Z,11.55
2023-05-19T13:00:53.414Z,8.82
2023-05-19T13:03:32.831Z,9.23
2023-05-19T13:06:12.333Z,9.68
2023-05-19T13:08:48.426Z,13.30
2023-05-19T13:11:36.366Z,8.70
2023-05-19T13:14:26.937Z,11.95
2023-05-19T13:17:04.687Z,12.30
2023-05-19T13:19:42.752Z,12.23
2023-05-19T13:22:30.790Z,12.05
2023-05-19T13:25:10.054Z,14.63
2023-05-19T13:27:46.811Z,14.07
2023-05-19T13:30:30.285Z,13.68
2023-05-19T13:33:06.969Z,12.93
2023-05-19T13:35:51.482Z,22.98
2023-05-19T13:38:28.777Z,15.65
2023-05-19T13:41:10.975Z,13.32
2023-05-19T13:43:50.499Z,18.13
2023-05-19T13:46:40.774Z,18.23
2023-05-19T13:49:30.524Z,13.98
2023-05-19T13:52:10.896Z,18.60
2023-05-19T13:54:51.907Z,14.20
2023-05-19T13:57:46.741Z,17.15
2023-05-19T14:00:22.759Z,13.30
2023-05-19T14:03:03.819Z,16.90
2023-05-19T14:05:46.918Z,19.35
2023-05-19T14:08:26.705Z,17.45
2023-05-19T14:11:08.681Z,17.67
2023-05-19T14:13:45.137Z,14.65
2023-05-19T14:16:26.240Z,17.75
2023-05-19T14:19:06.930Z,15.30
2023-05-19T14:21:44.714Z,17.30
2023-05-19T14:24:34.301Z,18.17
2023-05-19T14:27:17.509Z,17.52
2023-05-19T14:29:55.120Z,15.32
2023-05-19T14:32:36.299Z,14.48
2023-05-19T14:35:18.226Z,17.88
2023-05-19T14:38:00.279Z,15.55
2023-05-19T14:40:42.776Z,15.15
2023-05-19T14:43:23.747Z,15.93
2023-05-19T14:45:59.250Z,13.77
2023-05-19T14:48:36.398Z,15.73
2023-05-19T14:51:17.771Z,12.32
2023-05-19T14:53:53.136Z,15.85
2023-05-19T14:56:26.768Z,12.90
2023-05-19T14:59:00.800Z,14.27
2023-05-19T15:01:42.276Z,14.00
2023-05-19T15:04:22.265Z,15.77
2023-05-19T15:07:12.062Z,18.13
2023-05-19T15:09:48.705Z,14.55
2023-05-19T15:12:31.750Z,14.10
2023-05-19T15:15:10.158Z,13.52
2023-05-19T15:17:47.359Z,14.20
2023-05-19T15:20:39.662Z,14.35
2023-05-19T15:23:23.290Z,14.70
2023-05-19T15:25:56.484Z,14.20
2023-05-19T15:28:32.342Z,15.15
2023-05-19T15:31:08.536Z,17.05
2023-05-19T15:33:49.160Z,16.30
2023-05-19T15:36:20.198Z,12.35
2023-05-19T15:39:07.698Z,11.82
2023-05-19T15:41:47.902Z,16.50
2023-05-19T15:44:29.078Z,11.82
2023-05-19T15:47:07.045Z,13.95
2023-05-19T15:49:53.325Z,10.32
2023-05-19T15:52:30.614Z,11.73
2023-05-19T15:55:08.519Z,12.93
2023-05-19T15:57:46.018Z,9.98
2023-05-19T16:00:26.341Z,10.43
2023-05-19T16:03:03.189Z,11.52
2023-05-19T16:05:40.557Z,10.02
2023-05-19T16:08:20.861Z,9.45
2023-05-19T16:11:10.608Z,9.98
2023-05-19T16:13:51.934Z,8.85
2023-05-19T16:16:27.591Z,9.75
2023-05-19T16:19:10.376Z,9.27
2023-05-19T16:21:48.414Z,9.55
2023-05-19T16:24:22.187Z,10.98
2023-05-19T16:27:10.945Z,8.88
2023-05-19T16:29:50.592Z,9.65
2023-05-19T16:32:29.469Z,14.00
2023-05-19T16:35:12.489Z,8.15
2023-05-19T16:37:49.488Z,8.95
2023-05-19T16:40:30.763Z,12.48
2023-05-19T16:43:11.756Z,8.82
2023-05-19T16:45:54.923Z,9.65
2023-05-19T16:48:34.916Z,8.20
2023-05-19T16:51:15.629Z,8.82
2023-05-19T16:54:10.110Z,13.18
2023-05-19T16:56:48.595Z,9.88
2023-05-19T16:59:38.552Z,11.07
2023-05-19T17:02:10.636Z,10.13
2023-05-19T17:04:47.966Z,8.25
2023-05-19T17:07:33.328Z,8.98
2023-05-19T17:10:12.386Z,12.45
2023-05-19T17:12:49.026Z,9.25
2023-05-19T17:15:24.756Z,9.93
2023-05-19T17:18:02.749Z,11.50
2023-05-19T17:20:42.292Z,12.93
2023-05-19T17:23:41.824Z,12.50
2023-05-19T17:26:17.502Z,13.07
2023-05-19T17:29:22.958Z,13.00
2023-05-19T17:31:58.658Z,11.13
2023-05-19T17:34:41.386Z,11.68
2023-05-19T17:37:24.516Z,11.48
2023-05-19T17:40:06.762Z,11.13
2023-05-19T17:42:43.252Z,12.57
2023-05-19T17:45:24.327Z,11.55
2023-05-19T17:48:06.426Z,13.60
2023-05-19T17:50:45.283Z,12.85
2023-05-19T17:53:38.187Z,13.75
2023-05-19T17:56:20.341Z,16.80
2023-05-19T17:58:53.311Z,18.27
2023-05-19T18:01:34.090Z,15.05
2023-05-19T18:04:19.199Z,15.65
2023-05-19T18:07:10.755Z,19.80
2023-05-19T18:09:59.745Z,16.00
2023-05-19T18:12:42.857Z,22.83
2023-05-19T18:15:42.044Z,19.67
2023-05-19T18:18:28.285Z,17.67
2023-05-19T18:21:37.572Z,19.45
2023-05-19T18:24:16.570Z,17.50
2023-05-19T18:26:59.308Z,18.27
2023-05-19T18:29:36.079Z,19.00
2023-05-19T18:32:18.088Z,19.08
2023-05-19T18:34:56.297Z,19.10
2023-05-19T18:37:37.229Z,24.88
2023-05-19T18:40:16.613Z,21.15
2023-05-19T18:43:05.114Z,19.98
2023-05-19T18:45:45.957Z,21.83
2023-05-19T18:48:25.288Z,21.55
2023-05-19T18:51:01.679Z,21.92
2023-05-19T18:53:43.505Z,22.63
2023-05-19T18:56:36.837Z,22.77
2023-05-19T18:59:17.494Z,123.45
2023-05-19T19:01:59.943Z,25.95
2023-05-19T19:04:34.504Z,22.27
2023-05-19T19:07:07.274Z,47.78
2023-05-19T19:09:51.656Z,25.10
2023-05-19T19:12:29.241Z,21.55
2023-05-19T19:15:04.804Z,19.75
2023-05-19T19:17:46.290Z,23.23
2023-05-19T19:20:26.785Z,22.50
2023-05-19T19:23:03.611Z,25.55
2023-05-19T19:25:46.640Z,27.00
2023-05-19T19:28:35.399Z,28.05
2023-05-19T19:31:19.598Z,28.33
2023-05-19T19:33:58.882Z,27.17
2023-05-19T19:36:33.117Z,28.38
2023-05-19T19:39:18.133Z,22.60
2023-05-19T19:41:55.582Z,23.83
2023-05-19T19:44:43.536Z,23.90
2023-05-19T19:47:19.502Z,26.08
2023-05-19T19:49:59.297Z,25.58
2023-05-19T19:52:40.618Z,28.17
2023-05-19T19:55:18.657Z,27.67
2023-05-19T19:57:59.735Z,27.45
2023-05-19T20:00:34.554Z,31.25
2023-05-19T20:03:18.161Z,27.30
2023-05-19T20:05:56.459Z,25.70
2023-05-19T20:08:35.803Z,32.83
2023-05-19T20:11:10.324Z,26.77
2023-05-19T20:13:50.174Z,28.92
2023-05-19T20:16:28.331Z,27.33
2023-05-19T20:19:19.133Z,28.65
2023-05-19T20:21:54.461Z,28.83
2023-05-19T20:24:35.947Z,25.08
2023-05-19T20:27:12.444Z,26.42
2023-05-19T20:29:50.749Z,28.02
2023-05-19T20:32:31.377Z,28.67
2023-05-19T20:35:17.499Z,28.38
2023-05-19T20:37:55.439Z,38.20
2023-05-19T20:40:39.163Z,39.70
2023-05-19T20:43:14.670Z,37.08
2023-05-19T20:45:58.404Z,31.23
2023-05-19T20:48:41.013Z,29.35
2023-05-19T20:51:23.905Z,31.63
2023-05-19T20:54:02.490Z,30.10
2023-05-19T20:56:40.037Z,29.48
2023-05-19T20:59:12.287Z,26.73
2023-05-19T21:02:00.264Z,31.23
2023-05-19T21:04:37.105Z,30.42
2023-05-19T21:07:19.733Z,29.48
2023-05-19T21:09:59.168Z,29.17
2023-05-19T21:12:35.286Z,28.60
2023-05-19T21:15:24.075Z,33.63
2023-05-19T21:18:03.875Z,29.60
2023-05-19T21:20:47.689Z,26.85
2023-05-19T21:23:21.505Z,26.48
2023-05-19T21:26:04.010Z,28.88
2023-05-19T21:28:38.226Z,29.52
2023-05-19T21:31:15.582Z,27.00
2023-05-19T21:34:00.890Z,27.98
2023-05-19T21:36:33.451Z,26.77
2023-05-19T21:39:09.667Z,34.33
2023-05-19T21:41:45.971Z,36.00
2023-05-19T21:44:24.340Z,37.80
2023-05-19T21:47:07.022Z,34.38
2023-05-19T21:49:49.495Z,31.88
2023-05-19T21:52:46.694Z,29.58
2023-05-19T21:55:24.887Z,29.20
2023-05-19T21:58:07.781Z,32.88
2023-05-19T22:00:47.467Z,27.05
2023-05-19T22:03:27.069Z,28.00
2023-05-19T22:06:20.399Z,27.35
2023-05-19T22:09:01.929Z,31.00
2023-05-19T22:11:45.883Z,30.67
2023-05-19T22:14:27.474Z,33.65
2023-05-19T22:17:09.736Z,31.60
2023-05-19T22:19:46.530Z,37.70
2023-05-19T22:22:21.980Z,37.83
2023-05-19T22:24:57.122Z,35.25
2023-05-19T22:27:37.890Z,39.42
2023-05-19T22:30:28.689Z,39.70
2023-05-19T22:33:12.538Z,42.45
2023-05-19T22:35:45.558Z,45.70
2023-05-19T22:38:25.397Z,48.70
2023-05-19T22:41:02.048Z,47.42
2023-05-19T22:43:51.589Z,42.90
2023-05-19T22:46:24.700Z,40.13
2023-05-19T22:49:09.403Z,36.55
2023-05-19T22:51:47.777Z,37.78
2023-05-19T22:54:27.526Z,37.63
2023-05-19T22:57:05.876Z,56.33
2023-05-19T22:59:41.065Z,40.58
2023-05-19T23:02:20.581Z,38.33
2023-05-19T23:05:01.184Z,35.88
2023-05-19T23:10:29.167Z,34.47
2023-05-19T23:13:10.478Z,35.90
2023-05-19T23:15:51.683Z,31.80
2023-05-19T23:18:28.641Z,32.85
2023-05-19T23:21:16.111Z,30.67
2023-05-19T23:24:03.795Z,32.25
2023-05-19T23:26:38.577Z,31.65
2023-05-19T23:29:24.216Z,31.75
2023-05-19T23:32:01.120Z,32.63
2023-05-19T23:34:39.350Z,32.65
2023-05-19T23:37:23.100Z,33.00
2023-05-19T23:40:01.218Z,31.17
2023-05-19T23:42:47.351Z,30.15
2023-05-19T23:45:32.321Z,33.63
2023-05-19T23:48:08.169Z,31.92
2023-05-19T23:50:46.916Z,30.15
2023-05-19T23:53:25.240Z,33.25
2023-05-19T23:56:02.952Z,32.42
2023-05-19T23:58:45.314Z,30.65
